createdAt,value
2023-03-28T00:01:12.824Z,101994.88
2023-03-28T00:03:41.019Z,101985.66
2023-03-28T00:06:11.047Z,101976.25
2023-03-28T00:08:41.272Z,101976.81
2023-03-28T00:11:11.661Z,101973.00
2023-03-28T00:13:39.661Z,101974.50
2023-03-28T00:16:09.359Z,101975.41
2023-03-28T00:18:39.186Z,101977.66
2023-03-28T00:21:10.087Z,101981.72
2023-03-28T00:23:37.846Z,101969.94
2023-03-28T00:26:08.777Z,101968.78
2023-03-28T00:28:38.036Z,101966.25
2023-03-28T00:31:06.966Z,101963.00
2023-03-28T00:33:35.456Z,101967.09
2023-03-28T00:36:03.519Z,101963.88
2023-03-28T00:38:32.627Z,101965.28
2023-03-28T00:41:01.032Z,101955.81
2023-03-28T00:43:42.014Z,101959.69
2023-03-28T00:46:16.305Z,101954.41
2023-03-28T00:48:51.296Z,101952.59
2023-03-28T00:51:21.911Z,101949.13
2023-03-28T00:53:52.412Z,101954.81
2023-03-28T00:56:24.899Z,101958.81
2023-03-28T00:58:54.097Z,101951.69
2023-03-28T01:01:22.023Z,101959.75
2023-03-28T01:03:56.289Z,101953.09
2023-03-28T01:06:26.027Z,101954.41
2023-03-28T01:08:54.875Z,101955.00
2023-03-28T01:11:24.638Z,101949.41
2023-03-28T01:13:55.783Z,101956.34
2023-03-28T01:16:23.813Z,101954.19
2023-03-28T01:18:52.590Z,101950.41
2023-03-28T01:21:40.716Z,101940.13
2023-03-28T01:24:52.589Z,101931.97
2023-03-28T01:27:29.251Z,101923.75
2023-03-28T01:30:36.910Z,101919.19
2023-03-28T01:33:36.091Z,101919.88
2023-03-28T01:36:39.953Z,101915.31
2023-03-28T01:39:17.510Z,101915.53
2023-03-28T01:41:53.289Z,101919.53
2023-03-28T01:44:32.015Z,101916.41
2023-03-28T01:47:08.591Z,101910.94
2023-03-28T01:49:43.262Z,101907.16
2023-03-28T01:52:21.678Z,101900.16
2023-03-28T01:54:58.432Z,101905.97
2023-03-28T01:57:34.736Z,101896.69
2023-03-28T02:00:12.698Z,101894.28
2023-03-28T02:02:44.305Z,101895.53
2023-03-28T02:05:16.311Z,101883.50
2023-03-28T02:07:46.347Z,101879.50
2023-03-28T02:10:18.244Z,101872.00
2023-03-28T02:12:49.691Z,101880.34
2023-03-28T02:15:21.688Z,101874.75
2023-03-28T02:17:55.161Z,101858.50
2023-03-28T02:20:25.035Z,101855.03
2023-03-28T02:22:58.459Z,101847.28
2023-03-28T02:25:28.014Z,101852.69
2023-03-28T02:28:00.150Z,101848.88
2023-03-28T02:30:28.435Z,101846.31
2023-03-28T02:33:00.636Z,101844.78
2023-03-28T02:35:35.952Z,101841.50
2023-03-28T02:38:11.567Z,101828.84
2023-03-28T02:40:53.363Z,101831.59
2023-03-28T02:43:44.858Z,101828.38
2023-03-28T02:46:29.930Z,101833.00
2023-03-28T02:49:18.841Z,101831.56
2023-03-28T02:51:56.945Z,101812.50
2023-03-28T02:54:32.367Z,101811.78
2023-03-28T02:57:10.338Z,101815.53
2023-03-28T02:59:45.533Z,101816.78
2023-03-28T03:02:17.830Z,101808.19
2023-03-28T03:04:45.702Z,101800.69
2023-03-28T03:07:13.801Z,101791.19
2023-03-28T03:09:43.795Z,101779.97
2023-03-28T03:12:14.832Z,101777.81
2023-03-28T03:14:42.579Z,101762.91
2023-03-28T03:17:10.816Z,101764.53
2023-03-28T03:19:38.595Z,101748.50
2023-03-28T03:22:06.290Z,101755.88
2023-03-28T03:24:34.539Z,101754.03
2023-03-28T03:27:02.233Z,101732.91
2023-03-28T03:29:38.728Z,101715.19
2023-03-28T03:32:07.629Z,101729.66
2023-03-28T03:34:36.734Z,101744.75
2023-03-28T03:37:04.959Z,101742.72
2023-03-28T03:39:32.728Z,101734.53
2023-03-28T03:42:00.406Z,101747.28
2023-03-28T03:44:28.143Z,101744.59
2023-03-28T03:46:57.538Z,101732.81
2023-03-28T03:49:25.396Z,101729.28
2023-03-28T03:51:53.451Z,101718.75
2023-03-28T03:54:21.236Z,101713.38
2023-03-28T03:56:49.517Z,101710.38
2023-03-28T03:59:17.366Z,101706.03
2023-03-28T04:01:45.178Z,101705.09
2023-03-28T04:04:15.059Z,101714.50
2023-03-28T04:06:42.818Z,101718.19
2023-03-28T04:09:10.672Z,101725.53
2023-03-28T04:11:38.435Z,101733.09
2023-03-28T04:14:06.207Z,101726.63
2023-03-28T04:16:40.895Z,101734.09
2023-03-28T04:19:11.018Z,101748.50
2023-03-28T04:21:42.462Z,101766.00
2023-03-28T04:24:15.398Z,101763.38
2023-03-28T04:26:43.309Z,101763.50
2023-03-28T04:29:11.253Z,101753.53
2023-03-28T04:31:40.052Z,101759.59
2023-03-28T04:34:08.856Z,101757.53
2023-03-28T04:36:37.673Z,101760.59
2023-03-28T04:39:07.890Z,101752.53
2023-03-28T04:41:35.679Z,101738.63
2023-03-28T04:44:03.428Z,101733.84
2023-03-28T04:46:31.160Z,101740.94
2023-03-28T04:48:59.099Z,101748.50
2023-03-28T04:51:28.691Z,101748.06
2023-03-28T04:53:56.515Z,101747.28
2023-03-28T04:56:25.757Z,101738.22
2023-03-28T04:58:53.592Z,101745.44
2023-03-28T05:01:22.529Z,101737.66
2023-03-28T05:03:50.393Z,101739.84
2023-03-28T05:06:18.199Z,101720.56
2023-03-28T05:08:46.078Z,101713.41
2023-03-28T05:11:13.848Z,101696.63
2023-03-28T05:13:42.940Z,101695.81
2023-03-28T05:16:10.695Z,101700.53
2023-03-28T05:18:38.453Z,101688.25
2023-03-28T05:21:06.580Z,101691.06
2023-03-28T05:23:34.375Z,101690.75
2023-03-28T05:26:02.581Z,101691.31
2023-03-28T05:28:30.539Z,101688.31
2023-03-28T05:30:59.823Z,101688.41
2023-03-28T05:33:27.720Z,101702.81
2023-03-28T05:35:55.474Z,101717.16
2023-03-28T05:38:23.199Z,101713.47
2023-03-28T05:40:50.997Z,101703.78
2023-03-28T05:43:18.816Z,101713.41
2023-03-28T05:45:48.088Z,101718.22
2023-03-28T05:48:17.257Z,101727.06
2023-03-28T05:50:46.000Z,101744.34
2023-03-28T05:53:13.885Z,101746.72
2023-03-28T05:55:42.539Z,101745.63
2023-03-28T05:58:10.583Z,101759.19
2023-03-28T06:00:38.833Z,101771.59
2023-03-28T06:03:07.628Z,101768.47
2023-03-28T06:05:37.390Z,101748.44
2023-03-28T06:08:05.314Z,101744.25
2023-03-28T06:10:33.090Z,101747.91
2023-03-28T06:13:01.984Z,101740.88
2023-03-28T06:15:29.871Z,101738.09
2023-03-28T06:17:58.047Z,101742.78
2023-03-28T06:20:25.816Z,101745.78
2023-03-28T06:22:54.953Z,101737.72
2023-03-28T06:25:22.730Z,101745.00
2023-03-28T06:27:50.812Z,101733.06
2023-03-28T06:30:18.719Z,101722.09
2023-03-28T06:32:46.553Z,101731.03
2023-03-28T06:35:14.380Z,101737.47
2023-03-28T06:37:42.121Z,101730.09
2023-03-28T06:40:11.973Z,101725.41
2023-03-28T06:42:39.747Z,101713.91
2023-03-28T06:45:08.648Z,101705.09
2023-03-28T06:47:36.775Z,101710.47
2023-03-28T06:50:05.019Z,101694.41
2023-03-28T06:52:32.786Z,101689.72
2023-03-28T06:55:00.708Z,101705.41
2023-03-28T06:57:29.807Z,101716.03
2023-03-28T06:59:57.548Z,101712.31
2023-03-28T07:02:25.541Z,101709.75
2023-03-28T07:04:53.350Z,101702.91
2023-03-28T07:07:22.299Z,101689.06
2023-03-28T07:09:51.857Z,101685.28
2023-03-28T07:12:19.808Z,101695.69
2023-03-28T07:14:48.882Z,101695.50
2023-03-28T07:17:16.705Z,101687.44
2023-03-28T07:19:45.399Z,101677.81
2023-03-28T07:22:13.085Z,101671.34
2023-03-28T07:24:40.799Z,101683.22
2023-03-28T07:27:15.609Z,101687.34
2023-03-28T07:29:44.708Z,101676.75
2023-03-28T07:32:14.024Z,101671.59
2023-03-28T07:34:41.799Z,101685.78
2023-03-28T07:37:10.121Z,101681.19
2023-03-28T07:39:39.896Z,101676.91
2023-03-28T07:42:11.365Z,101683.22
2023-03-28T07:44:41.806Z,101655.41
2023-03-28T07:47:10.816Z,101646.56
2023-03-28T07:49:41.038Z,101646.25
2023-03-28T07:52:08.980Z,101640.50
2023-03-28T07:54:37.363Z,101639.19
2023-03-28T07:57:05.685Z,101646.16
2023-03-28T07:59:33.641Z,101655.41
2023-03-28T08:02:01.449Z,101649.38
2023-03-28T08:04:29.199Z,101647.50
2023-03-28T08:06:58.441Z,101659.81
2023-03-28T08:09:26.292Z,101649.25
2023-03-28T08:11:54.082Z,101642.78
2023-03-28T08:14:21.767Z,101626.22
2023-03-28T08:16:49.523Z,101636.72
2023-03-28T08:19:17.962Z,101625.47
2023-03-28T08:21:45.727Z,101612.97
2023-03-28T08:24:22.296Z,101614.63
2023-03-28T08:26:56.883Z,101608.19
2023-03-28T08:29:24.818Z,101611.13
2023-03-28T08:31:52.644Z,101602.25
2023-03-28T08:34:20.784Z,101599.06
2023-03-28T08:36:48.897Z,101610.56
2023-03-28T08:39:19.126Z,101606.75
2023-03-28T08:42:10.567Z,101612.34
2023-03-28T08:45:04.536Z,101607.72
2023-03-28T08:47:34.165Z,101614.53
2023-03-28T08:50:09.235Z,101621.03
2023-03-28T08:52:39.424Z,101606.72
2023-03-28T08:55:28.040Z,101602.69
2023-03-28T08:57:56.931Z,101600.91
2023-03-28T09:00:29.337Z,101594.03
2023-03-28T09:02:57.379Z,101591.16
2023-03-28T09:05:34.604Z,101586.91
2023-03-28T09:08:19.837Z,101590.69
2023-03-28T09:10:53.726Z,101589.50
2023-03-28T09:13:35.212Z,101581.41
2023-03-28T09:16:16.704Z,101587.78
2023-03-28T09:19:12.476Z,101574.06
2023-03-28T09:22:04.947Z,101567.59
2023-03-28T09:24:55.740Z,101560.22
2023-03-28T09:27:28.799Z,101564.22
2023-03-28T09:30:04.115Z,101574.44
2023-03-28T09:32:38.078Z,101563.94
2023-03-28T09:35:16.203Z,101566.34
2023-03-28T09:37:47.740Z,101551.59
2023-03-28T09:40:21.256Z,101561.53
2023-03-28T09:43:05.076Z,101557.44
2023-03-28T09:45:49.639Z,101566.31
2023-03-28T09:48:22.674Z,101572.06
2023-03-28T09:50:51.385Z,101569.69
2023-03-28T09:53:26.161Z,101560.59
2023-03-28T09:56:04.365Z,101561.72
2023-03-28T09:58:50.364Z,101564.19
2023-03-28T10:01:37.108Z,101566.72
2023-03-28T10:04:12.307Z,101562.84
2023-03-28T10:06:41.711Z,101559.19
2023-03-28T10:09:20.058Z,101550.00
2023-03-28T10:11:50.017Z,101553.22
2023-03-28T10:14:34.233Z,101551.47
2023-03-28T10:17:04.705Z,101544.69
2023-03-28T10:19:36.038Z,101545.28
2023-03-28T10:22:07.552Z,101555.91
2023-03-28T10:24:37.148Z,101575.16
2023-03-28T10:27:14.665Z,101594.03
2023-03-28T10:29:44.245Z,101604.25
2023-03-28T10:32:14.176Z,101603.16
2023-03-28T10:34:41.966Z,101594.00
2023-03-28T10:37:27.036Z,101578.56
2023-03-28T10:40:05.112Z,101559.91
2023-03-28T10:42:41.776Z,101539.16
2023-03-28T10:45:21.697Z,101525.97
2023-03-28T10:47:51.735Z,101531.09
2023-03-28T10:50:37.763Z,101530.88
2023-03-28T10:53:25.128Z,101534.63
2023-03-28T10:56:15.257Z,101509.47
2023-03-28T10:58:54.930Z,101512.91
2023-03-28T11:01:26.743Z,101521.28
2023-03-28T11:04:08.075Z,101532.22
2023-03-28T11:06:45.774Z,101519.56
2023-03-28T11:09:21.798Z,101502.19
2023-03-28T11:12:04.113Z,101510.84
2023-03-28T11:14:51.047Z,101509.94
2023-03-28T11:17:30.280Z,101522.03
2023-03-28T11:20:23.528Z,101511.88
2023-03-28T11:23:06.734Z,101513.88
2023-03-28T11:25:44.589Z,101516.03
2023-03-28T11:28:23.822Z,101517.72
2023-03-28T11:30:56.176Z,101507.22
2023-03-28T11:33:28.834Z,101483.69
2023-03-28T11:36:00.988Z,101487.47
2023-03-28T11:38:33.508Z,101510.66
2023-03-28T11:41:05.540Z,101505.75
2023-03-28T11:43:38.655Z,101488.06
2023-03-28T11:46:11.236Z,101485.13
2023-03-28T11:48:46.759Z,101493.50
2023-03-28T11:51:20.062Z,101480.56
2023-03-28T11:53:50.417Z,101476.81
2023-03-28T11:56:27.878Z,101465.59
2023-03-28T11:59:04.034Z,101442.47
2023-03-28T12:01:36.631Z,101420.94
2023-03-28T12:04:11.507Z,101429.34
2023-03-28T12:06:59.618Z,101419.94
2023-03-28T12:09:37.190Z,101414.16
2023-03-28T12:12:10.862Z,101411.91
2023-03-28T12:14:50.779Z,101404.00
2023-03-28T12:17:22.201Z,101408.41
2023-03-28T12:19:51.007Z,101406.88
2023-03-28T12:22:26.723Z,101406.06
2023-03-28T12:25:00.407Z,101411.44
2023-03-28T12:27:42.127Z,101404.06
2023-03-28T12:30:22.551Z,101399.34
2023-03-28T12:33:01.421Z,101390.31
2023-03-28T12:35:39.726Z,101402.47
2023-03-28T12:38:19.471Z,101413.59
2023-03-28T12:40:56.010Z,101410.19
2023-03-28T12:43:29.130Z,101408.47
2023-03-28T12:46:02.399Z,101410.66
2023-03-28T12:48:34.964Z,101418.69
2023-03-28T12:51:08.190Z,101415.19
2023-03-28T12:53:44.952Z,101420.63
2023-03-28T12:56:16.192Z,101419.63
2023-03-28T12:58:46.720Z,101416.72
2023-03-28T13:01:34.993Z,101397.59
2023-03-28T13:04:13.529Z,101417.69
2023-03-28T13:06:48.756Z,101414.22
2023-03-28T13:09:41.434Z,101407.19
2023-03-28T13:12:32.358Z,101382.41
2023-03-28T13:15:02.453Z,101376.34
2023-03-28T13:17:35.019Z,101365.59
2023-03-28T13:20:27.654Z,101371.28
2023-03-28T13:23:00.501Z,101370.44
2023-03-28T13:25:32.325Z,101368.03
2023-03-28T13:28:02.388Z,101353.81
2023-03-28T13:30:32.184Z,101351.56
2023-03-28T13:33:04.031Z,101368.88
2023-03-28T13:35:45.945Z,101345.97
2023-03-28T13:38:36.690Z,101337.63
2023-03-28T13:41:06.831Z,101332.06
2023-03-28T13:43:43.609Z,101321.09
2023-03-28T13:46:14.839Z,101334.03
2023-03-28T13:48:50.817Z,101322.41
2023-03-28T13:51:23.214Z,101322.88
2023-03-28T13:53:51.658Z,101322.53
2023-03-28T13:56:24.332Z,101319.13
2023-03-28T13:58:55.266Z,101319.13
2023-03-28T14:01:28.156Z,101314.72
2023-03-28T14:03:57.437Z,101312.38
2023-03-28T14:06:27.302Z,101322.78
2023-03-28T14:08:59.343Z,101325.91
2023-03-28T14:11:32.129Z,101322.78
2023-03-28T14:14:08.797Z,101298.97
2023-03-28T14:16:37.820Z,101307.28
2023-03-28T14:19:08.599Z,101304.16
2023-03-28T14:21:36.607Z,101301.31
2023-03-28T14:24:07.010Z,101300.75
2023-03-28T14:26:36.771Z,101286.06
2023-03-28T14:29:07.056Z,101272.72
2023-03-28T14:31:37.328Z,101273.00
2023-03-28T14:34:18.242Z,101261.13
2023-03-28T14:36:58.602Z,101257.25
2023-03-28T14:39:27.624Z,101249.31
2023-03-28T14:41:56.818Z,101246.34
2023-03-28T14:44:25.010Z,101242.84
2023-03-28T14:46:54.225Z,101226.41
2023-03-28T14:49:26.312Z,101230.97
2023-03-28T14:51:56.997Z,101222.50
2023-03-28T14:54:29.648Z,101212.91
2023-03-28T14:56:59.617Z,101218.53
2023-03-28T14:59:37.849Z,101208.81
2023-03-28T15:02:06.762Z,101208.47
2023-03-28T15:04:36.975Z,101195.31
2023-03-28T15:07:04.927Z,101181.91
2023-03-28T15:09:34.810Z,101192.88
2023-03-28T15:12:06.683Z,101189.41
2023-03-28T15:14:41.172Z,101177.22
2023-03-28T15:17:14.752Z,101176.81
2023-03-28T15:19:46.496Z,101164.47
2023-03-28T15:22:20.885Z,101154.38
2023-03-28T15:24:49.021Z,101165.84
2023-03-28T15:27:24.756Z,101160.34
2023-03-28T15:29:52.864Z,101155.56
2023-03-28T15:32:20.952Z,101148.25
2023-03-28T15:34:57.708Z,101150.25
2023-03-28T15:37:27.099Z,101154.06
2023-03-28T15:39:55.603Z,101151.47
2023-03-28T15:42:36.049Z,101153.38
2023-03-28T15:45:25.604Z,101157.97
2023-03-28T15:47:55.469Z,101162.47
2023-03-28T15:50:33.076Z,101155.41
2023-03-28T15:53:03.569Z,101162.41
2023-03-28T15:55:32.319Z,101155.84
2023-03-28T15:58:00.709Z,101152.72
2023-03-28T16:00:44.612Z,101154.66
2023-03-28T16:03:34.416Z,101154.19
2023-03-28T16:06:23.030Z,101140.94
2023-03-28T16:09:14.029Z,101127.25
2023-03-28T16:11:42.371Z,101136.94
2023-03-28T16:14:14.894Z,101139.94
2023-03-28T16:16:42.750Z,101136.16
2023-03-28T16:19:18.468Z,101129.06
2023-03-28T16:21:47.741Z,101115.28
2023-03-28T16:24:15.760Z,101129.06
2023-03-28T16:26:43.763Z,101141.69
2023-03-28T16:29:12.199Z,101138.00
2023-03-28T16:31:40.498Z,101147.97
2023-03-28T16:34:10.077Z,101161.59
2023-03-28T16:36:38.277Z,101170.00
2023-03-28T16:39:08.423Z,101181.66
2023-03-28T16:41:37.101Z,101178.19
2023-03-28T16:44:05.609Z,101174.41
2023-03-28T16:46:33.464Z,101175.53
2023-03-28T16:49:01.633Z,101167.09
2023-03-28T16:51:29.429Z,101163.28
2023-03-28T16:53:57.200Z,101161.78
2023-03-28T16:56:27.481Z,101164.56
2023-03-28T16:58:55.509Z,101167.09
2023-03-28T17:01:23.679Z,101167.44
2023-03-28T17:03:52.693Z,101169.25
2023-03-28T17:06:20.665Z,101154.44
2023-03-28T17:08:49.489Z,101154.53
2023-03-28T17:11:17.551Z,101147.81
2023-03-28T17:13:47.539Z,101145.19
2023-03-28T17:16:15.372Z,101141.13
2023-03-28T17:18:43.154Z,101153.19
2023-03-28T17:21:13.136Z,101147.03
2023-03-28T17:23:43.076Z,101150.25
2023-03-28T17:26:12.154Z,101157.66
2023-03-28T17:28:42.107Z,101158.66
2023-03-28T17:31:14.695Z,101160.72
2023-03-28T17:33:42.703Z,101156.56
2023-03-28T17:36:19.663Z,101153.56
2023-03-28T17:38:49.556Z,101164.81
2023-03-28T17:41:17.544Z,101165.56
2023-03-28T17:43:45.647Z,101159.56
2023-03-28T17:46:14.835Z,101150.69
2023-03-28T17:48:43.004Z,101143.56
2023-03-28T17:51:11.698Z,101134.56
2023-03-28T17:53:41.005Z,101129.19
2023-03-28T17:56:09.730Z,101144.88
2023-03-28T17:58:38.585Z,101154.19
2023-03-28T18:01:10.490Z,101153.25
2023-03-28T18:03:40.096Z,101154.75
2023-03-28T18:06:08.968Z,101148.47
2023-03-28T18:08:36.809Z,101150.75
2023-03-28T18:11:07.431Z,101149.69
2023-03-28T18:13:36.502Z,101144.25
2023-03-28T18:16:05.406Z,101157.06
2023-03-28T18:18:33.993Z,101147.81
2023-03-28T18:21:04.251Z,101137.25
2023-03-28T18:23:32.414Z,101146.81
2023-03-28T18:26:00.743Z,101142.63
2023-03-28T18:28:28.750Z,101141.13
2023-03-28T18:30:58.076Z,101142.16
2023-03-28T18:33:25.965Z,101137.53
2023-03-28T18:35:53.759Z,101134.94
2023-03-28T18:38:23.026Z,101138.66
2023-03-28T18:40:53.261Z,101128.28
2023-03-28T18:43:21.361Z,101138.56
2023-03-28T18:45:54.599Z,101147.00
2023-03-28T18:48:22.737Z,101146.84
2023-03-28T18:50:50.968Z,101138.00
2023-03-28T18:53:18.677Z,101146.09
2023-03-28T18:55:47.778Z,101144.31
2023-03-28T18:58:16.113Z,101141.25
2023-03-28T19:00:43.946Z,101149.72
2023-03-28T19:03:17.444Z,101148.34
2023-03-28T19:05:45.690Z,101143.50
2023-03-28T19:08:13.530Z,101145.25
2023-03-28T19:10:47.316Z,101136.88
2023-03-28T19:13:15.031Z,101149.81
2023-03-28T19:15:43.189Z,101159.84
2023-03-28T19:18:11.158Z,101161.31
2023-03-28T19:20:39.272Z,101155.94
2023-03-28T19:23:07.627Z,101161.53
2023-03-28T19:25:35.417Z,101163.84
2023-03-28T19:28:04.554Z,101164.59
2023-03-28T19:30:32.386Z,101169.00
2023-03-28T19:33:00.195Z,101172.41
2023-03-28T19:35:27.954Z,101176.28
2023-03-28T19:37:56.115Z,101182.84
2023-03-28T19:40:25.824Z,101178.53
2023-03-28T19:42:53.632Z,101178.13
2023-03-28T19:45:22.707Z,101167.81
2023-03-28T19:47:51.733Z,101168.59
2023-03-28T19:50:20.268Z,101161.97
2023-03-28T19:52:48.081Z,101166.72
2023-03-28T19:55:16.193Z,101167.75
2023-03-28T19:57:44.080Z,101152.78
2023-03-28T20:00:12.453Z,101158.59
2023-03-28T20:02:41.769Z,101161.91
2023-03-28T20:05:10.435Z,101153.41
2023-03-28T20:07:38.124Z,101149.50
2023-03-28T20:10:07.412Z,101148.22
2023-03-28T20:12:39.570Z,101150.00
2023-03-28T20:15:08.901Z,101144.66
2023-03-28T20:17:37.138Z,101142.03
2023-03-28T20:20:08.150Z,101146.50
2023-03-28T20:22:36.245Z,101158.34
2023-03-28T20:25:04.272Z,101171.28
2023-03-28T20:27:32.827Z,101173.00
2023-03-28T20:30:00.819Z,101175.75
2023-03-28T20:32:28.564Z,101175.28
2023-03-28T20:34:56.711Z,101180.47
2023-03-28T20:37:27.304Z,101168.72
2023-03-28T20:39:55.169Z,101180.31
2023-03-28T20:42:24.294Z,101172.88
2023-03-28T20:44:52.053Z,101168.44
2023-03-28T20:47:22.242Z,101174.03
2023-03-28T20:49:56.248Z,101171.53
2023-03-28T20:52:25.709Z,101168.56
2023-03-28T20:54:53.389Z,101167.44
2023-03-28T20:57:21.484Z,101170.28
2023-03-28T20:59:49.280Z,101166.66
2023-03-28T21:02:16.970Z,101163.28
2023-03-28T21:04:44.733Z,101168.88
2023-03-28T21:07:12.858Z,101168.38
2023-03-28T21:09:42.283Z,101157.00
2023-03-28T21:12:10.128Z,101148.47
2023-03-28T21:14:37.839Z,101140.44
2023-03-28T21:17:08.511Z,101149.03
2023-03-28T21:19:36.378Z,101151.97
2023-03-28T21:22:04.136Z,101154.56
2023-03-28T21:24:31.994Z,101162.75
2023-03-28T21:27:01.831Z,101163.22
2023-03-28T21:29:30.138Z,101171.25
2023-03-28T21:31:57.949Z,101174.81
2023-03-28T21:34:30.653Z,101169.56
2023-03-28T21:36:58.367Z,101178.44
2023-03-28T21:39:27.064Z,101181.16
2023-03-28T21:41:55.250Z,101175.47
2023-03-28T21:44:25.128Z,101187.72
2023-03-28T21:46:52.904Z,101173.53
2023-03-28T21:49:20.808Z,101174.75
2023-03-28T21:51:48.527Z,101178.06
2023-03-28T21:54:16.438Z,101170.22
2023-03-28T21:56:44.165Z,101169.75
2023-03-28T21:59:11.962Z,101166.81
2023-03-28T22:01:41.120Z,101163.00
2023-03-28T22:04:08.871Z,101164.28
2023-03-28T22:06:36.602Z,101175.00
2023-03-28T22:09:04.987Z,101177.13
2023-03-28T22:11:35.062Z,101163.88
2023-03-28T22:14:04.659Z,101164.25
2023-03-28T22:16:34.664Z,101170.72
2023-03-28T22:19:04.306Z,101167.56
2023-03-28T22:21:32.088Z,101170.13
2023-03-28T22:24:02.503Z,101174.69
2023-03-28T22:26:30.754Z,101161.41
2023-03-28T22:28:59.628Z,101169.97
2023-03-28T22:31:27.788Z,101158.69
2023-03-28T22:33:55.857Z,101155.81
2023-03-28T22:36:25.087Z,101155.41
2023-03-28T22:38:54.694Z,101164.69
2023-03-28T22:41:23.728Z,101166.97
2023-03-28T22:43:51.460Z,101159.75
2023-03-28T22:46:20.482Z,101169.66
2023-03-28T22:48:54.429Z,101163.56
2023-03-28T22:51:24.978Z,101159.56
2023-03-28T22:53:54.837Z,101169.75
2023-03-28T22:56:24.323Z,101160.63
2023-03-28T22:58:53.911Z,101162.81
2023-03-28T23:01:23.082Z,101148.97
2023-03-28T23:03:51.975Z,101159.88
2023-03-28T23:06:20.375Z,101157.75
2023-03-28T23:08:48.283Z,101161.72
2023-03-28T23:11:17.343Z,101171.13
2023-03-28T23:13:45.087Z,101167.56
2023-03-28T23:16:12.867Z,101162.81
2023-03-28T23:18:40.580Z,101154.94
2023-03-28T23:21:08.776Z,101164.56
2023-03-28T23:23:36.875Z,101166.41
2023-03-28T23:26:04.745Z,101172.50
2023-03-28T23:28:33.952Z,101170.16
2023-03-28T23:31:02.000Z,101171.59
2023-03-28T23:33:29.855Z,101174.00
2023-03-28T23:35:57.610Z,101162.59
2023-03-28T23:38:25.468Z,101170.81
2023-03-28T23:40:53.160Z,101176.72
2023-03-28T23:43:21.410Z,101169.25
2023-03-28T23:45:50.525Z,101170.91
2023-03-28T23:48:18.374Z,101159.00
2023-03-28T23:50:46.239Z,101162.72
2023-03-28T23:53:13.990Z,101157.16
2023-03-28T23:55:41.697Z,101160.16
2023-03-28T23:58:09.535Z,101151.38
